sensor_id;sensor_type;location;lat;lon;timestamp;P1;durP1;ratioP1;P2;durP2;ratioP2
74660;SDS011;63191;39.566;2.654;2023-09-07T00:00:09;7.00;;;2.50;;
74660;SDS011;63191;39.566;2.654;2023-09-07T00:02:36;6.30;;;2.70;;
74660;SDS011;63191;39.566;2.654;2023-09-07T00:05:01;7.20;;;2.30;;
74660;SDS011;63191;39.566;2.654;2023-09-07T00:07:27;7.90;;;2.60;;
74660;SDS011;63191;39.566;2.654;2023-09-07T00:09:52;9.30;;;2.80;;
74660;SDS011;63191;39.566;2.654;2023-09-07T00:12:18;9.20;;;2.60;;
74660;SDS011;63191;39.566;2.654;2023-09-07T00:14:44;8.50;;;2.40;;
74660;SDS011;63191;39.566;2.654;2023-09-07T00:17:10;8.10;;;2.60;;
74660;SDS011;63191;39.566;2.654;2023-09-07T00:19:35;7.90;;;2.50;;
74660;SDS011;63191;39.566;2.654;2023-09-07T00:22:03;7.40;;;2.80;;
74660;SDS011;63191;39.566;2.654;2023-09-07T00:24:29;6.70;;;2.30;;
74660;SDS011;63191;39.566;2.654;2023-09-07T00:26:56;5.90;;;2.60;;
74660;SDS011;63191;39.566;2.654;2023-09-07T00:29:22;8.20;;;2.50;;
74660;SDS011;63191;39.566;2.654;2023-09-07T00:31:48;7.30;;;2.60;;
74660;SDS011;63191;39.566;2.654;2023-09-07T00:34:14;7.00;;;2.70;;
74660;SDS011;63191;39.566;2.654;2023-09-07T00:36:39;7.00;;;2.50;;
74660;SDS011;63191;39.566;2.654;2023-09-07T00:39:05;7.30;;;2.70;;
74660;SDS011;63191;39.566;2.654;2023-09-07T00:41:30;7.50;;;2.80;;
74660;SDS011;63191;39.566;2.654;2023-09-07T00:43:56;9.10;;;3.10;;
74660;SDS011;63191;39.566;2.654;2023-09-07T00:46:21;7.20;;;2.60;;
74660;SDS011;63191;39.566;2.654;2023-09-07T00:48:47;8.10;;;2.50;;
74660;SDS011;63191;39.566;2.654;2023-09-07T00:51:13;8.80;;;2.50;;
74660;SDS011;63191;39.566;2.654;2023-09-07T00:53:39;7.10;;;2.50;;
74660;SDS011;63191;39.566;2.654;2023-09-07T00:56:05;9.00;;;2.70;;
74660;SDS011;63191;39.566;2.654;2023-09-07T00:58:32;6.10;;;2.60;;
74660;SDS011;63191;39.566;2.654;2023-09-07T01:00:58;9.40;;;2.70;;
74660;SDS011;63191;39.566;2.654;2023-09-07T01:03:24;6.70;;;2.40;;
74660;SDS011;63191;39.566;2.654;2023-09-07T01:05:51;10.10;;;2.80;;
74660;SDS011;63191;39.566;2.654;2023-09-07T01:08:23;8.30;;;2.80;;
74660;SDS011;63191;39.566;2.654;2023-09-07T01:10:50;7.60;;;2.80;;
74660;SDS011;63191;39.566;2.654;2023-09-07T01:13:16;8.40;;;2.70;;
74660;SDS011;63191;39.566;2.654;2023-09-07T01:15:41;7.30;;;2.50;;
74660;SDS011;63191;39.566;2.654;2023-09-07T01:18:07;9.60;;;3.10;;
74660;SDS011;63191;39.566;2.654;2023-09-07T01:20:33;7.70;;;2.70;;
74660;SDS011;63191;39.566;2.654;2023-09-07T01:23:00;7.10;;;2.60;;
74660;SDS011;63191;39.566;2.654;2023-09-07T01:25:26;8.70;;;2.90;;
74660;SDS011;63191;39.566;2.654;2023-09-07T01:27:53;8.80;;;3.00;;
74660;SDS011;63191;39.566;2.654;2023-09-07T01:30:18;7.10;;;2.70;;
74660;SDS011;63191;39.566;2.654;2023-09-07T01:32:44;9.50;;;2.80;;
74660;SDS011;63191;39.566;2.654;2023-09-07T01:35:10;10.00;;;2.80;;
74660;SDS011;63191;39.566;2.654;2023-09-07T01:37:36;7.40;;;2.50;;
74660;SDS011;63191;39.566;2.654;2023-09-07T01:40:02;7.70;;;2.30;;
74660;SDS011;63191;39.566;2.654;2023-09-07T01:42:32;9.10;;;2.60;;
74660;SDS011;63191;39.566;2.654;2023-09-07T01:44:58;7.80;;;3.00;;
74660;SDS011;63191;39.566;2.654;2023-09-07T01:47:23;7.10;;;2.50;;
74660;SDS011;63191;39.566;2.654;2023-09-07T01:49:49;7.90;;;2.70;;
74660;SDS011;63191;39.566;2.654;2023-09-07T01:52:14;8.30;;;3.00;;
74660;SDS011;63191;39.566;2.654;2023-09-07T01:54:41;10.40;;;2.90;;
74660;SDS011;63191;39.566;2.654;2023-09-07T01:57:07;7.20;;;2.90;;
74660;SDS011;63191;39.566;2.654;2023-09-07T01:59:32;9.70;;;2.80;;
74660;SDS011;63191;39.566;2.654;2023-09-07T02:01:58;7.40;;;2.90;;
74660;SDS011;63191;39.566;2.654;2023-09-07T02:04:23;6.50;;;2.80;;
74660;SDS011;63191;39.566;2.654;2023-09-07T02:06:49;6.80;;;2.70;;
74660;SDS011;63191;39.566;2.654;2023-09-07T02:09:14;8.80;;;2.80;;
74660;SDS011;63191;39.566;2.654;2023-09-07T02:11:40;6.10;;;2.50;;
74660;SDS011;63191;39.566;2.654;2023-09-07T02:14:05;7.30;;;2.80;;
74660;SDS011;63191;39.566;2.654;2023-09-07T02:16:31;10.30;;;2.70;;
74660;SDS011;63191;39.566;2.654;2023-09-07T02:19:03;9.10;;;2.50;;
74660;SDS011;63191;39.566;2.654;2023-09-07T02:21:30;6.70;;;2.80;;
74660;SDS011;63191;39.566;2.654;2023-09-07T02:23:55;6.90;;;2.90;;
74660;SDS011;63191;39.566;2.654;2023-09-07T02:26:21;7.00;;;2.50;;
74660;SDS011;63191;39.566;2.654;2023-09-07T02:28:46;7.30;;;2.90;;
74660;SDS011;63191;39.566;2.654;2023-09-07T02:31:12;8.20;;;2.70;;
74660;SDS011;63191;39.566;2.654;2023-09-07T02:33:37;7.20;;;2.80;;
74660;SDS011;63191;39.566;2.654;2023-09-07T02:36:03;6.20;;;2.90;;
74660;SDS011;63191;39.566;2.654;2023-09-07T02:38:29;7.80;;;3.40;;
74660;SDS011;63191;39.566;2.654;2023-09-07T02:40:55;8.60;;;2.90;;
74660;SDS011;63191;39.566;2.654;2023-09-07T02:43:21;7.00;;;2.40;;
74660;SDS011;63191;39.566;2.654;2023-09-07T02:45:48;8.00;;;2.90;;
74660;SDS011;63191;39.566;2.654;2023-09-07T02:48:14;8.70;;;2.90;;
74660;SDS011;63191;39.566;2.654;2023-09-07T02:50:40;9.20;;;3.20;;
74660;SDS011;63191;39.566;2.654;2023-09-07T02:53:06;8.30;;;3.20;;
74660;SDS011;63191;39.566;2.654;2023-09-07T02:55:31;7.40;;;2.70;;
74660;SDS011;63191;39.566;2.654;2023-09-07T02:57:57;9.50;;;3.10;;
74660;SDS011;63191;39.566;2.654;2023-09-07T03:00:23;7.90;;;2.90;;
74660;SDS011;63191;39.566;2.654;2023-09-07T03:02:49;6.40;;;2.70;;
74660;SDS011;63191;39.566;2.654;2023-09-07T03:05:17;9.30;;;2.50;;
74660;SDS011;63191;39.566;2.654;2023-09-07T03:07:44;7.30;;;2.60;;
74660;SDS011;63191;39.566;2.654;2023-09-07T03:10:10;9.20;;;2.80;;
74660;SDS011;63191;39.566;2.654;2023-09-07T03:12:36;9.50;;;2.70;;
74660;SDS011;63191;39.566;2.654;2023-09-07T03:15:01;9.10;;;2.90;;
74660;SDS011;63191;39.566;2.654;2023-09-07T03:17:29;6.20;;;2.80;;
74660;SDS011;63191;39.566;2.654;2023-09-07T03:19:54;7.50;;;3.00;;
74660;SDS011;63191;39.566;2.654;2023-09-07T03:22:20;9.40;;;3.20;;
74660;SDS011;63191;39.566;2.654;2023-09-07T03:24:46;9.30;;;3.30;;
74660;SDS011;63191;39.566;2.654;2023-09-07T03:27:11;10.70;;;2.90;;
74660;SDS011;63191;39.566;2.654;2023-09-07T03:29:37;7.30;;;2.70;;
74660;SDS011;63191;39.566;2.654;2023-09-07T03:32:03;9.70;;;2.80;;
74660;SDS011;63191;39.566;2.654;2023-09-07T03:34:29;8.00;;;2.90;;
74660;SDS011;63191;39.566;2.654;2023-09-07T03:36:55;7.40;;;2.80;;
74660;SDS011;63191;39.566;2.654;2023-09-07T03:39:20;7.80;;;3.00;;
74660;SDS011;63191;39.566;2.654;2023-09-07T03:41:48;8.00;;;2.80;;
74660;SDS011;63191;39.566;2.654;2023-09-07T03:44:14;9.00;;;2.90;;
74660;SDS011;63191;39.566;2.654;2023-09-07T03:46:39;6.80;;;2.70;;
74660;SDS011;63191;39.566;2.654;2023-09-07T03:49:05;8.00;;;2.60;;
74660;SDS011;63191;39.566;2.654;2023-09-07T03:51:31;9.20;;;2.90;;
74660;SDS011;63191;39.566;2.654;2023-09-07T03:53:56;7.50;;;2.60;;
74660;SDS011;63191;39.566;2.654;2023-09-07T03:56:22;8.30;;;3.00;;
74660;SDS011;63191;39.566;2.654;2023-09-07T03:58:48;7.40;;;2.50;;
74660;SDS011;63191;39.566;2.654;2023-09-07T04:01:14;6.80;;;2.80;;
74660;SDS011;63191;39.566;2.654;2023-09-07T04:03:39;8.30;;;3.00;;
74660;SDS011;63191;39.566;2.654;2023-09-07T04:06:05;7.20;;;3.00;;
74660;SDS011;63191;39.566;2.654;2023-09-07T04:08:31;7.70;;;3.70;;
74660;SDS011;63191;39.566;2.654;2023-09-07T04:10:57;8.80;;;3.00;;
74660;SDS011;63191;39.566;2.654;2023-09-07T04:13:22;7.10;;;2.90;;
74660;SDS011;63191;39.566;2.654;2023-09-07T04:15:48;8.60;;;2.90;;
74660;SDS011;63191;39.566;2.654;2023-09-07T04:18:14;6.00;;;3.00;;
74660;SDS011;63191;39.566;2.654;2023-09-07T04:20:43;8.00;;;2.70;;
74660;SDS011;63191;39.566;2.654;2023-09-07T04:23:08;7.70;;;2.70;;
74660;SDS011;63191;39.566;2.654;2023-09-07T04:25:34;8.30;;;3.00;;
74660;SDS011;63191;39.566;2.654;2023-09-07T04:28:00;7.00;;;2.90;;
74660;SDS011;63191;39.566;2.654;2023-09-07T04:30:26;8.00;;;3.10;;
74660;SDS011;63191;39.566;2.654;2023-09-07T04:32:52;7.70;;;3.20;;
74660;SDS011;63191;39.566;2.654;2023-09-07T04:35:17;6.60;;;3.10;;
74660;SDS011;63191;39.566;2.654;2023-09-07T04:37:43;8.70;;;2.70;;
74660;SDS011;63191;39.566;2.654;2023-09-07T04:40:09;7.20;;;2.50;;
74660;SDS011;63191;39.566;2.654;2023-09-07T04:42:35;8.10;;;2.90;;
74660;SDS011;63191;39.566;2.654;2023-09-07T04:45:01;6.70;;;2.70;;
74660;SDS011;63191;39.566;2.654;2023-09-07T04:47:28;6.60;;;2.80;;
74660;SDS011;63191;39.566;2.654;2023-09-07T04:49:53;7.50;;;2.60;;
74660;SDS011;63191;39.566;2.654;2023-09-07T04:52:19;5.90;;;2.30;;
74660;SDS011;63191;39.566;2.654;2023-09-07T04:54:44;7.10;;;2.70;;
74660;SDS011;63191;39.566;2.654;2023-09-07T04:57:10;6.60;;;2.60;;
74660;SDS011;63191;39.566;2.654;2023-09-07T04:59:37;7.70;;;2.80;;
74660;SDS011;63191;39.566;2.654;2023-09-07T05:02:02;8.00;;;2.40;;
74660;SDS011;63191;39.566;2.654;2023-09-07T05:04:28;8.80;;;2.60;;
74660;SDS011;63191;39.566;2.654;2023-09-07T05:06:55;7.80;;;2.40;;
74660;SDS011;63191;39.566;2.654;2023-09-07T05:09:21;8.00;;;2.60;;
74660;SDS011;63191;39.566;2.654;2023-09-07T05:11:48;9.40;;;3.10;;
74660;SDS011;63191;39.566;2.654;2023-09-07T05:14:14;7.00;;;2.70;;
74660;SDS011;63191;39.566;2.654;2023-09-07T05:16:42;8.20;;;3.10;;
74660;SDS011;63191;39.566;2.654;2023-09-07T05:19:08;9.80;;;3.10;;
74660;SDS011;63191;39.566;2.654;2023-09-07T05:21:34;8.40;;;3.10;;
74660;SDS011;63191;39.566;2.654;2023-09-07T05:23:59;11.40;;;3.10;;
74660;SDS011;63191;39.566;2.654;2023-09-07T05:26:25;8.70;;;3.00;;
74660;SDS011;63191;39.566;2.654;2023-09-07T05:28:50;8.10;;;3.00;;
74660;SDS011;63191;39.566;2.654;2023-09-07T05:31:16;7.00;;;2.90;;
74660;SDS011;63191;39.566;2.654;2023-09-07T05:33:41;6.70;;;2.80;;
74660;SDS011;63191;39.566;2.654;2023-09-07T05:36:07;7.00;;;2.60;;
74660;SDS011;63191;39.566;2.654;2023-09-07T05:38:32;10.70;;;2.70;;
74660;SDS011;63191;39.566;2.654;2023-09-07T05:40:58;7.10;;;2.90;;
74660;SDS011;63191;39.566;2.654;2023-09-07T05:43:24;7.20;;;2.80;;
74660;SDS011;63191;39.566;2.654;2023-09-07T05:45:49;7.30;;;2.90;;
74660;SDS011;63191;39.566;2.654;2023-09-07T05:48:15;8.30;;;2.60;;
74660;SDS011;63191;39.566;2.654;2023-09-07T05:50:43;9.10;;;3.00;;
74660;SDS011;63191;39.566;2.654;2023-09-07T05:53:09;8.90;;;3.00;;
74660;SDS011;63191;39.566;2.654;2023-09-07T05:55:35;8.00;;;3.20;;
74660;SDS011;63191;39.566;2.654;2023-09-07T05:58:03;8.00;;;2.90;;
74660;SDS011;63191;39.566;2.654;2023-09-07T06:00:29;8.20;;;2.90;;
74660;SDS011;63191;39.566;2.654;2023-09-07T06:02:55;8.80;;;3.00;;
74660;SDS011;63191;39.566;2.654;2023-09-07T06:05:21;8.90;;;3.20;;
74660;SDS011;63191;39.566;2.654;2023-09-07T06:07:46;9.20;;;3.00;;
74660;SDS011;63191;39.566;2.654;2023-09-07T06:10:12;9.20;;;2.90;;
74660;SDS011;63191;39.566;2.654;2023-09-07T06:12:37;10.00;;;2.70;;
74660;SDS011;63191;39.566;2.654;2023-09-07T06:15:03;9.00;;;3.00;;
74660;SDS011;63191;39.566;2.654;2023-09-07T06:17:29;9.70;;;3.00;;
74660;SDS011;63191;39.566;2.654;2023-09-07T06:19:55;8.80;;;3.10;;
74660;SDS011;63191;39.566;2.654;2023-09-07T06:22:21;9.50;;;2.70;;
74660;SDS011;63191;39.566;2.654;2023-09-07T06:24:47;9.40;;;3.00;;
74660;SDS011;63191;39.566;2.654;2023-09-07T06:27:12;9.50;;;3.00;;
74660;SDS011;63191;39.566;2.654;2023-09-07T06:29:38;8.50;;;2.80;;
74660;SDS011;63191;39.566;2.654;2023-09-07T06:32:03;7.40;;;2.40;;
74660;SDS011;63191;39.566;2.654;2023-09-07T06:34:29;8.20;;;2.50;;
74660;SDS011;63191;39.566;2.654;2023-09-07T06:36:55;7.50;;;2.50;;
74660;SDS011;63191;39.566;2.654;2023-09-07T06:39:20;10.90;;;3.80;;
74660;SDS011;63191;39.566;2.654;2023-09-07T06:41:46;9.70;;;2.90;;
74660;SDS011;63191;39.566;2.654;2023-09-07T06:44:12;8.90;;;2.40;;
74660;SDS011;63191;39.566;2.654;2023-09-07T06:46:38;11.20;;;2.90;;
74660;SDS011;63191;39.566;2.654;2023-09-07T06:49:03;9.00;;;3.10;;
74660;SDS011;63191;39.566;2.654;2023-09-07T06:51:30;7.70;;;2.50;;
74660;SDS011;63191;39.566;2.654;2023-09-07T06:53:56;7.90;;;2.70;;
74660;SDS011;63191;39.566;2.654;2023-09-07T06:56:21;8.50;;;2.70;;
74660;SDS011;63191;39.566;2.654;2023-09-07T06:58:47;7.50;;;2.50;;
74660;SDS011;63191;39.566;2.654;2023-09-07T07:01:13;7.80;;;2.70;;
74660;SDS011;63191;39.566;2.654;2023-09-07T07:03:38;8.30;;;2.60;;
74660;SDS011;63191;39.566;2.654;2023-09-07T07:06:04;7.00;;;2.80;;
74660;SDS011;63191;39.566;2.654;2023-09-07T07:08:30;7.90;;;3.00;;
74660;SDS011;63191;39.566;2.654;2023-09-07T07:10:55;7.10;;;2.50;;
74660;SDS011;63191;39.566;2.654;2023-09-07T07:13:21;9.10;;;2.80;;
74660;SDS011;63191;39.566;2.654;2023-09-07T07:15:46;8.70;;;2.60;;
74660;SDS011;63191;39.566;2.654;2023-09-07T07:18:12;9.40;;;3.00;;
74660;SDS011;63191;39.566;2.654;2023-09-07T07:20:38;8.20;;;2.90;;
74660;SDS011;63191;39.566;2.654;2023-09-07T07:23:04;9.10;;;3.40;;
74660;SDS011;63191;39.566;2.654;2023-09-07T07:25:31;8.10;;;2.80;;
74660;SDS011;63191;39.566;2.654;2023-09-07T07:27:59;8.20;;;3.00;;
74660;SDS011;63191;39.566;2.654;2023-09-07T07:30:28;11.30;;;3.20;;
74660;SDS011;63191;39.566;2.654;2023-09-07T07:32:56;7.90;;;2.50;;
74660;SDS011;63191;39.566;2.654;2023-09-07T07:35:22;6.10;;;2.30;;
74660;SDS011;63191;39.566;2.654;2023-09-07T07:37:49;8.60;;;2.70;;
74660;SDS011;63191;39.566;2.654;2023-09-07T07:40:15;7.40;;;2.40;;
74660;SDS011;63191;39.566;2.654;2023-09-07T07:42:40;8.00;;;2.60;;
74660;SDS011;63191;39.566;2.654;2023-09-07T07:45:07;8.90;;;2.30;;
74660;SDS011;63191;39.566;2.654;2023-09-07T07:47:33;8.20;;;2.40;;
74660;SDS011;63191;39.566;2.654;2023-09-07T07:49:58;7.30;;;2.40;;
74660;SDS011;63191;39.566;2.654;2023-09-07T07:52:24;8.00;;;2.50;;
74660;SDS011;63191;39.566;2.654;2023-09-07T07:54:50;7.40;;;2.40;;
74660;SDS011;63191;39.566;2.654;2023-09-07T07:57:15;8.10;;;2.60;;
74660;SDS011;63191;39.566;2.654;2023-09-07T07:59:41;6.80;;;2.70;;
74660;SDS011;63191;39.566;2.654;2023-09-07T08:02:06;7.80;;;2.70;;
74660;SDS011;63191;39.566;2.654;2023-09-07T08:04:32;7.70;;;2.60;;
74660;SDS011;63191;39.566;2.654;2023-09-07T08:06:58;8.70;;;2.40;;
74660;SDS011;63191;39.566;2.654;2023-09-07T08:09:29;7.50;;;2.30;;
74660;SDS011;63191;39.566;2.654;2023-09-07T08:11:55;8.80;;;2.50;;
74660;SDS011;63191;39.566;2.654;2023-09-07T08:14:21;8.40;;;2.20;;
74660;SDS011;63191;39.566;2.654;2023-09-07T08:16:47;8.80;;;2.30;;
74660;SDS011;63191;39.566;2.654;2023-09-07T08:19:13;8.20;;;2.70;;
74660;SDS011;63191;39.566;2.654;2023-09-07T08:21:39;8.00;;;2.60;;
74660;SDS011;63191;39.566;2.654;2023-09-07T08:24:07;7.70;;;2.70;;
74660;SDS011;63191;39.566;2.654;2023-09-07T08:26:33;10.00;;;2.80;;
74660;SDS011;63191;39.566;2.654;2023-09-07T08:28:58;10.10;;;2.60;;
74660;SDS011;63191;39.566;2.654;2023-09-07T08:31:24;7.90;;;2.60;;
74660;SDS011;63191;39.566;2.654;2023-09-07T08:33:49;6.50;;;2.20;;
74660;SDS011;63191;39.566;2.654;2023-09-07T08:36:20;7.40;;;2.40;;
74660;SDS011;63191;39.566;2.654;2023-09-07T08:38:47;7.00;;;2.70;;
74660;SDS011;63191;39.566;2.654;2023-09-07T08:41:13;6.40;;;2.20;;
74660;SDS011;63191;39.566;2.654;2023-09-07T08:43:39;6.90;;;2.30;;
74660;SDS011;63191;39.566;2.654;2023-09-07T08:46:13;8.00;;;2.60;;
74660;SDS011;63191;39.566;2.654;2023-09-07T08:48:41;7.20;;;2.50;;
74660;SDS011;63191;39.566;2.654;2023-09-07T08:51:07;7.30;;;2.70;;
74660;SDS011;63191;39.566;2.654;2023-09-07T08:53:36;7.40;;;2.50;;
74660;SDS011;63191;39.566;2.654;2023-09-07T08:56:02;6.00;;;2.30;;
74660;SDS011;63191;39.566;2.654;2023-09-07T08:58:28;7.10;;;2.50;;
74660;SDS011;63191;39.566;2.654;2023-09-07T09:00:54;8.10;;;2.70;;
74660;SDS011;63191;39.566;2.654;2023-09-07T09:03:22;7.40;;;2.40;;
74660;SDS011;63191;39.566;2.654;2023-09-07T09:05:48;9.20;;;2.50;;
74660;SDS011;63191;39.566;2.654;2023-09-07T09:08:16;8.00;;;2.50;;
74660;SDS011;63191;39.566;2.654;2023-09-07T09:10:45;6.80;;;2.60;;
74660;SDS011;63191;39.566;2.654;2023-09-07T09:13:11;7.90;;;2.50;;
74660;SDS011;63191;39.566;2.654;2023-09-07T09:15:37;7.30;;;2.60;;
74660;SDS011;63191;39.566;2.654;2023-09-07T09:18:12;8.40;;;2.40;;
74660;SDS011;63191;39.566;2.654;2023-09-07T09:20:38;7.40;;;2.40;;
74660;SDS011;63191;39.566;2.654;2023-09-07T09:23:04;6.10;;;2.40;;
74660;SDS011;63191;39.566;2.654;2023-09-07T09:25:32;7.20;;;2.50;;
74660;SDS011;63191;39.566;2.654;2023-09-07T09:27:57;7.80;;;2.40;;
74660;SDS011;63191;39.566;2.654;2023-09-07T09:30:23;5.90;;;2.30;;
74660;SDS011;63191;39.566;2.654;2023-09-07T09:32:50;6.00;;;2.40;;
74660;SDS011;63191;39.566;2.654;2023-09-07T09:35:16;7.30;;;2.40;;
74660;SDS011;63191;39.566;2.654;2023-09-07T09:37:46;5.60;;;2.30;;
74660;SDS011;63191;39.566;2.654;2023-09-07T09:40:13;6.00;;;2.10;;
74660;SDS011;63191;39.566;2.654;2023-09-07T09:42:43;7.20;;;2.40;;
74660;SDS011;63191;39.566;2.654;2023-09-07T09:45:09;6.20;;;2.60;;
74660;SDS011;63191;39.566;2.654;2023-09-07T09:47:39;6.50;;;2.70;;
74660;SDS011;63191;39.566;2.654;2023-09-07T09:50:08;6.60;;;2.40;;
74660;SDS011;63191;39.566;2.654;2023-09-07T09:52:35;5.30;;;2.50;;
74660;SDS011;63191;39.566;2.654;2023-09-07T09:55:02;7.40;;;2.70;;
74660;SDS011;63191;39.566;2.654;2023-09-07T09:57:32;6.80;;;2.80;;
74660;SDS011;63191;39.566;2.654;2023-09-07T09:59:58;9.00;;;2.80;;
74660;SDS011;63191;39.566;2.654;2023-09-07T10:02:24;8.80;;;3.00;;
74660;SDS011;63191;39.566;2.654;2023-09-07T10:04:51;7.60;;;2.90;;
74660;SDS011;63191;39.566;2.654;2023-09-07T10:07:18;7.70;;;3.00;;
74660;SDS011;63191;39.566;2.654;2023-09-07T10:09:44;8.60;;;3.00;;
74660;SDS011;63191;39.566;2.654;2023-09-07T10:12:13;7.80;;;2.90;;
74660;SDS011;63191;39.566;2.654;2023-09-07T10:14:39;7.40;;;3.10;;
74660;SDS011;63191;39.566;2.654;2023-09-07T10:17:05;7.70;;;3.10;;
74660;SDS011;63191;39.566;2.654;2023-09-07T10:19:31;6.70;;;3.10;;
74660;SDS011;63191;39.566;2.654;2023-09-07T10:21:57;6.00;;;3.20;;
74660;SDS011;63191;39.566;2.654;2023-09-07T10:24:32;7.70;;;3.50;;
74660;SDS011;63191;39.566;2.654;2023-09-07T10:27:06;7.30;;;3.90;;
74660;SDS011;63191;39.566;2.654;2023-09-07T10:29:41;5.90;;;3.30;;
74660;SDS011;63191;39.566;2.654;2023-09-07T10:32:08;7.50;;;4.00;;
74660;SDS011;63191;39.566;2.654;2023-09-07T10:34:39;7.30;;;4.00;;
74660;SDS011;63191;39.566;2.654;2023-09-07T10:37:09;7.10;;;4.30;;
74660;SDS011;63191;39.566;2.654;2023-09-07T10:39:37;8.30;;;4.20;;
74660;SDS011;63191;39.566;2.654;2023-09-07T10:42:04;6.80;;;3.80;;
74660;SDS011;63191;39.566;2.654;2023-09-07T10:44:29;7.30;;;4.00;;
74660;SDS011;63191;39.566;2.654;2023-09-07T10:46:56;7.90;;;4.20;;
74660;SDS011;63191;39.566;2.654;2023-09-07T10:49:23;9.20;;;4.40;;
74660;SDS011;63191;39.566;2.654;2023-09-07T10:51:48;6.50;;;4.40;;
74660;SDS011;63191;39.566;2.654;2023-09-07T10:54:18;7.20;;;4.00;;
74660;SDS011;63191;39.566;2.654;2023-09-07T10:56:48;7.70;;;4.10;;
74660;SDS011;63191;39.566;2.654;2023-09-07T10:59:14;7.10;;;4.20;;
74660;SDS011;63191;39.566;2.654;2023-09-07T11:01:40;7.70;;;4.90;;
74660;SDS011;63191;39.566;2.654;2023-09-07T11:04:07;6.70;;;4.50;;
74660;SDS011;63191;39.566;2.654;2023-09-07T11:06:33;8.80;;;4.60;;
74660;SDS011;63191;39.566;2.654;2023-09-07T11:08:59;8.00;;;5.10;;
74660;SDS011;63191;39.566;2.654;2023-09-07T11:11:26;6.90;;;4.40;;
74660;SDS011;63191;39.566;2.654;2023-09-07T11:13:52;7.60;;;5.00;;
74660;SDS011;63191;39.566;2.654;2023-09-07T11:16:17;6.80;;;4.20;;
74660;SDS011;63191;39.566;2.654;2023-09-07T11:18:44;7.20;;;4.20;;
74660;SDS011;63191;39.566;2.654;2023-09-07T11:21:11;6.90;;;3.90;;
74660;SDS011;63191;39.566;2.654;2023-09-07T11:23:37;6.60;;;3.80;;
74660;SDS011;63191;39.566;2.654;2023-09-07T11:26:05;6.90;;;3.90;;
74660;SDS011;63191;39.566;2.654;2023-09-07T11:28:33;5.90;;;3.70;;
74660;SDS011;63191;39.566;2.654;2023-09-07T11:30:58;6.90;;;3.30;;
74660;SDS011;63191;39.566;2.654;2023-09-07T11:33:24;6.20;;;3.40;;
74660;SDS011;63191;39.566;2.654;2023-09-07T11:35:51;5.80;;;3.60;;
74660;SDS011;63191;39.566;2.654;2023-09-07T11:38:19;6.80;;;3.20;;
74660;SDS011;63191;39.566;2.654;2023-09-07T11:40:45;6.60;;;3.30;;
74660;SDS011;63191;39.566;2.654;2023-09-07T11:43:19;7.40;;;3.70;;
74660;SDS011;63191;39.566;2.654;2023-09-07T11:45:45;6.10;;;3.00;;
74660;SDS011;63191;39.566;2.654;2023-09-07T11:48:11;7.00;;;3.40;;
74660;SDS011;63191;39.566;2.654;2023-09-07T11:50:37;5.50;;;3.00;;
74660;SDS011;63191;39.566;2.654;2023-09-07T11:53:04;7.10;;;3.20;;
74660;SDS011;63191;39.566;2.654;2023-09-07T11:55:30;7.00;;;2.90;;
74660;SDS011;63191;39.566;2.654;2023-09-07T11:57:56;5.80;;;3.30;;
74660;SDS011;63191;39.566;2.654;2023-09-07T12:00:21;7.20;;;3.60;;
74660;SDS011;63191;39.566;2.654;2023-09-07T12:02:47;5.80;;;3.00;;
74660;SDS011;63191;39.566;2.654;2023-09-07T12:05:13;6.20;;;3.30;;
74660;SDS011;63191;39.566;2.654;2023-09-07T12:07:41;7.20;;;3.50;;
74660;SDS011;63191;39.566;2.654;2023-09-07T12:10:08;7.00;;;3.60;;
74660;SDS011;63191;39.566;2.654;2023-09-07T12:12:38;8.90;;;3.50;;
74660;SDS011;63191;39.566;2.654;2023-09-07T12:15:05;8.30;;;3.90;;
74660;SDS011;63191;39.566;2.654;2023-09-07T12:17:31;6.50;;;3.30;;
74660;SDS011;63191;39.566;2.654;2023-09-07T12:19:57;6.30;;;3.70;;
74660;SDS011;63191;39.566;2.654;2023-09-07T12:22:23;7.00;;;3.80;;
74660;SDS011;63191;39.566;2.654;2023-09-07T12:24:49;6.50;;;3.70;;
74660;SDS011;63191;39.566;2.654;2023-09-07T12:27:14;7.50;;;4.20;;
74660;SDS011;63191;39.566;2.654;2023-09-07T12:29:40;6.80;;;3.90;;
74660;SDS011;63191;39.566;2.654;2023-09-07T12:32:06;6.90;;;4.00;;
74660;SDS011;63191;39.566;2.654;2023-09-07T12:34:31;7.40;;;3.60;;
74660;SDS011;63191;39.566;2.654;2023-09-07T12:36:57;7.70;;;3.60;;
74660;SDS011;63191;39.566;2.654;2023-09-07T12:39:23;6.40;;;3.30;;
74660;SDS011;63191;39.566;2.654;2023-09-07T12:41:48;6.60;;;3.60;;
74660;SDS011;63191;39.566;2.654;2023-09-07T12:44:14;7.90;;;3.50;;
74660;SDS011;63191;39.566;2.654;2023-09-07T12:46:39;6.70;;;3.40;;
74660;SDS011;63191;39.566;2.654;2023-09-07T12:49:05;6.90;;;3.00;;
74660;SDS011;63191;39.566;2.654;2023-09-07T12:51:31;6.60;;;3.20;;
74660;SDS011;63191;39.566;2.654;2023-09-07T12:53:56;7.60;;;3.30;;
74660;SDS011;63191;39.566;2.654;2023-09-07T12:56:22;6.50;;;3.20;;
74660;SDS011;63191;39.566;2.654;2023-09-07T12:58:47;7.30;;;3.70;;
74660;SDS011;63191;39.566;2.654;2023-09-07T13:01:14;9.30;;;3.20;;
74660;SDS011;63191;39.566;2.654;2023-09-07T13:03:41;8.20;;;3.00;;
74660;SDS011;63191;39.566;2.654;2023-09-07T13:06:07;7.80;;;3.30;;
74660;SDS011;63191;39.566;2.654;2023-09-07T13:08:33;8.70;;;3.10;;
74660;SDS011;63191;39.566;2.654;2023-09-07T13:10:58;8.00;;;3.30;;
74660;SDS011;63191;39.566;2.654;2023-09-07T13:13:24;9.70;;;3.10;;
74660;SDS011;63191;39.566;2.654;2023-09-07T13:15:54;6.50;;;2.90;;
74660;SDS011;63191;39.566;2.654;2023-09-07T13:18:20;7.70;;;3.10;;
74660;SDS011;63191;39.566;2.654;2023-09-07T13:20:46;7.00;;;2.60;;
74660;SDS011;63191;39.566;2.654;2023-09-07T13:23:15;6.40;;;2.80;;
74660;SDS011;63191;39.566;2.654;2023-09-07T13:25:41;7.30;;;2.90;;
74660;SDS011;63191;39.566;2.654;2023-09-07T13:28:06;5.70;;;2.70;;
74660;SDS011;63191;39.566;2.654;2023-09-07T13:30:32;7.70;;;3.10;;
74660;SDS011;63191;39.566;2.654;2023-09-07T13:32:57;9.40;;;3.00;;
74660;SDS011;63191;39.566;2.654;2023-09-07T13:35:23;7.70;;;2.70;;
74660;SDS011;63191;39.566;2.654;2023-09-07T13:37:48;5.80;;;2.70;;
74660;SDS011;63191;39.566;2.654;2023-09-07T13:40:14;7.60;;;3.20;;
74660;SDS011;63191;39.566;2.654;2023-09-07T13:42:40;5.60;;;2.50;;
74660;SDS011;63191;39.566;2.654;2023-09-07T13:45:08;6.00;;;2.70;;
74660;SDS011;63191;39.566;2.654;2023-09-07T13:47:33;6.20;;;2.70;;
74660;SDS011;63191;39.566;2.654;2023-09-07T13:49:59;6.10;;;2.60;;
74660;SDS011;63191;39.566;2.654;2023-09-07T13:52:24;7.80;;;2.80;;
74660;SDS011;63191;39.566;2.654;2023-09-07T13:54:51;7.20;;;2.60;;
74660;SDS011;63191;39.566;2.654;2023-09-07T13:57:16;8.30;;;2.60;;
74660;SDS011;63191;39.566;2.654;2023-09-07T13:59:42;6.90;;;2.70;;
74660;SDS011;63191;39.566;2.654;2023-09-07T14:02:07;5.50;;;2.60;;
74660;SDS011;63191;39.566;2.654;2023-09-07T14:04:33;5.80;;;2.70;;
74660;SDS011;63191;39.566;2.654;2023-09-07T14:06:58;6.20;;;2.30;;
74660;SDS011;63191;39.566;2.654;2023-09-07T14:09:24;6.60;;;2.70;;
74660;SDS011;63191;39.566;2.654;2023-09-07T14:11:49;8.20;;;3.00;;
74660;SDS011;63191;39.566;2.654;2023-09-07T14:14:15;6.90;;;3.00;;
74660;SDS011;63191;39.566;2.654;2023-09-07T14:16:41;6.30;;;2.40;;
74660;SDS011;63191;39.566;2.654;2023-09-07T14:19:07;6.20;;;2.90;;
74660;SDS011;63191;39.566;2.654;2023-09-07T14:21:33;7.20;;;2.60;;
74660;SDS011;63191;39.566;2.654;2023-09-07T14:23:58;6.90;;;2.90;;
74660;SDS011;63191;39.566;2.654;2023-09-07T14:26:24;6.10;;;2.90;;
74660;SDS011;63191;39.566;2.654;2023-09-07T14:28:49;8.40;;;2.80;;
74660;SDS011;63191;39.566;2.654;2023-09-07T14:31:15;6.70;;;2.80;;
74660;SDS011;63191;39.566;2.654;2023-09-07T14:33:41;6.80;;;2.50;;
74660;SDS011;63191;39.566;2.654;2023-09-07T14:36:08;6.90;;;2.80;;
74660;SDS011;63191;39.566;2.654;2023-09-07T14:38:36;7.40;;;2.90;;
74660;SDS011;63191;39.566;2.654;2023-09-07T14:41:10;7.00;;;2.40;;